createdAt,value
2022-08-05T03:49:54.066Z,52.55
2022-08-05T03:50:38.244Z,52.57
2022-08-05T03:54:59.531Z,52.76
2022-08-05T03:56:38.217Z,52.57
2022-08-05T03:57:44.651Z,52.47
2022-08-05T03:58:32.883Z,51.99
2022-08-05T03:59:56.923Z,51.8
2022-08-05T04:00:32.878Z,52.09
2022-08-05T04:01:34.608Z,52.21
2022-08-05T04:02:45.171Z,52.21
2022-08-05T04:03:34.487Z,51.92
2022-08-05T04:04:32.868Z,52.31
2022-08-05T04:05:36.086Z,52.59
2022-08-05T04:06:32.873Z,52.69
2022-08-05T04:07:35.159Z,52.31
2022-08-05T04:08:39.210Z,52.31
2022-08-05T04:09:38.911Z,52.79
2022-08-05T04:10:40.351Z,52.79
2022-08-05T04:11:56.641Z,53.37
2022-08-05T04:13:53.655Z,52.5
2022-08-05T04:14:33.613Z,53.47
2022-08-05T04:15:36.359Z,52.69
2022-08-05T04:16:35.123Z,52.69
2022-08-05T04:17:59.916Z,52.4
2022-08-05T04:18:34.366Z,52.31
2022-08-05T04:19:33.705Z,52.04
2022-08-05T04:20:34.193Z,51.75
2022-08-05T04:22:13.010Z,52.33
2022-08-05T04:22:36.919Z,52.72
2022-08-05T04:24:09.007Z,52.33
2022-08-05T04:24:34.883Z,52.43
2022-08-05T04:26:02.278Z,52.14
2022-08-05T04:26:35.116Z,51.85
2022-08-05T04:27:57.546Z,51.56
2022-08-05T04:28:34.876Z,51.17
2022-08-05T04:29:35.187Z,51.85
2022-08-05T04:30:36.226Z,51.85
2022-08-05T04:31:40.873Z,52.04
2022-08-05T04:32:35.678Z,52.23
2022-08-05T04:34:32.208Z,52.94
2022-08-05T04:34:59.880Z,52.81
2022-08-05T04:36:44.681Z,52.72
2022-08-05T04:36:59.433Z,52.72
2022-08-05T04:38:06.704Z,52.65
2022-08-05T04:38:59.523Z,52.75
2022-08-05T04:39:59.162Z,52.81
2022-08-05T04:41:01.020Z,52.45
2022-08-05T04:41:59.161Z,52.75
2022-08-05T04:42:59.415Z,52.75
2022-08-05T04:43:59.502Z,52.45
2022-08-05T04:45:03.117Z,51.87
2022-08-05T04:46:01.056Z,51.59
2022-08-05T04:47:08.674Z,52.07
2022-08-05T04:47:59.990Z,52.07
2022-08-05T04:49:01.288Z,51.59
2022-08-05T04:50:11.400Z,51.87
2022-08-05T04:51:15.981Z,52.17
2022-08-05T04:52:15.489Z,52.36
2022-08-05T04:53:16.184Z,52.84
2022-08-05T04:54:15.921Z,52.67
2022-08-05T04:55:17.377Z,52.84
2022-08-05T04:56:43.575Z,52.55
2022-08-05T04:57:51.505Z,51.68
2022-08-05T04:58:43.051Z,51.71
2022-08-05T04:59:43.142Z,51.51
2022-08-05T05:00:43.262Z,51.9
2022-08-05T05:02:42.078Z,50.07
2022-08-05T05:02:56.586Z,49.87
2022-08-05T05:03:55.643Z,47.07
2022-08-05T05:05:03.745Z,46.58
2022-08-05T05:06:57.512Z,46.39
2022-08-05T05:07:56.341Z,46.88
2022-08-05T05:08:45.339Z,47.16
2022-08-05T05:09:43.185Z,47.36
2022-08-05T05:10:56.065Z,47.94
2022-08-05T05:11:59.037Z,48.42
2022-08-05T05:12:42.302Z,48.97
2022-08-05T05:13:45.786Z,48.23
2022-08-05T05:14:52.916Z,47.74
2022-08-05T05:16:02.400Z,48.03
2022-08-05T05:16:42.307Z,47.94
2022-08-05T05:17:58.556Z,47.94
2022-08-05T05:19:17.970Z,47.36
2022-08-05T05:19:50.133Z,47.19
2022-08-05T05:20:52.826Z,48.06
2022-08-05T05:21:49.759Z,48.44
2022-08-05T05:22:50.497Z,48.25
2022-08-05T05:24:10.955Z,47.96
2022-08-05T05:25:01.446Z,47.77
2022-08-05T05:25:50.314Z,47.89
2022-08-05T05:26:54.193Z,47.89
2022-08-05T05:27:56.245Z,48.47
2022-08-05T05:28:50.016Z,48.86
2022-08-05T05:30:07.568Z,47.69
2022-08-05T05:30:51.827Z,47.31
2022-08-05T05:31:50.017Z,47.11
2022-08-05T05:32:50.852Z,46.15
2022-08-05T05:34:03.896Z,46.44
2022-08-05T05:34:50.012Z,46.15
2022-08-05T05:35:50.244Z,46.44
2022-08-05T05:36:53.555Z,46.61
2022-08-05T05:38:01.927Z,47.09
2022-08-05T05:38:49.872Z,47.09
2022-08-05T05:39:50.175Z,47
2022-08-05T05:40:53.806Z,46.97
2022-08-05T05:41:56.800Z,47.07
2022-08-05T05:42:51.410Z,47.45
2022-08-05T05:44:02.467Z,47.84
2022-08-05T05:44:50.737Z,47.16
2022-08-05T05:45:50.976Z,47.36
2022-08-05T05:46:53.289Z,48.01
2022-08-05T05:48:09.259Z,48.69
2022-08-05T05:48:51.537Z,49.37
2022-08-05T05:50:01.353Z,49.73
2022-08-05T05:50:50.734Z,50.21
2022-08-05T05:51:53.490Z,50.98
2022-08-05T05:52:52.934Z,51.65
2022-08-05T05:54:00.672Z,52.04
2022-08-05T05:54:52.640Z,52.79
2022-08-05T05:56:03.222Z,54.27
2022-08-05T05:56:50.743Z,55.52
2022-08-05T05:57:55.491Z,56.26
2022-08-05T05:58:52.663Z,57.42
2022-08-05T05:59:51.103Z,59.16
2022-08-05T06:00:51.777Z,60.61
2022-08-05T06:01:59.987Z,61.44
2022-08-05T06:02:50.724Z,61.54
2022-08-05T06:04:04.458Z,62.79
2022-08-05T06:04:51.828Z,63.76
2022-08-05T06:05:57.698Z,63.47
2022-08-05T06:06:51.304Z,64.15
2022-08-05T06:08:04.267Z,64.72
2022-08-05T06:08:52.487Z,65.88
2022-08-05T06:10:07.081Z,65.2
2022-08-05T06:10:55.201Z,65.3
2022-08-05T06:12:04.084Z,65.56
2022-08-05T06:12:50.776Z,66.08
2022-08-05T06:13:56.000Z,66.43
2022-08-05T06:14:53.874Z,66.91
2022-08-05T06:16:37.057Z,66.62
2022-08-05T06:16:50.703Z,66.72
2022-08-05T06:17:55.992Z,66.82
2022-08-05T06:18:55.928Z,67.2
2022-08-05T06:20:01.391Z,67.68
2022-08-05T06:20:56.292Z,67.58
2022-08-05T06:21:52.367Z,67.88
2022-08-05T06:22:50.700Z,68.35
2022-08-05T06:23:52.041Z,68.55
2022-08-05T06:24:51.031Z,68.74
2022-08-05T06:26:24.171Z,68.93
2022-08-05T06:26:55.466Z,69.32
2022-08-05T06:28:23.506Z,69.13
2022-08-05T06:28:50.685Z,68.93
2022-08-05T06:30:16.682Z,68.93
2022-08-05T06:30:51.555Z,69.23
2022-08-05T06:31:52.748Z,69.13
2022-08-05T06:32:52.698Z,68.97
2022-08-05T06:34:10.570Z,69.07
2022-08-05T06:34:56.149Z,69.26
2022-08-05T06:36:10.232Z,69.07
2022-08-05T06:37:01.028Z,69.26
2022-08-05T06:38:03.130Z,69.26
2022-08-05T06:38:57.621Z,69.45
2022-08-05T06:39:57.413Z,69.26
2022-08-05T06:40:57.414Z,69.35
2022-08-05T06:41:58.782Z,69
2022-08-05T06:42:57.795Z,68.71
2022-08-05T06:44:02.814Z,68.33
2022-08-05T06:44:59.383Z,67.59
2022-08-05T06:46:09.598Z,66.63
2022-08-05T06:47:30.181Z,66.17
2022-08-05T06:49:14.429Z,64.76
2022-08-05T06:50:19.584Z,64.69
2022-08-05T06:51:24.016Z,64.5
2022-08-05T06:52:40.778Z,65.08
2022-08-05T06:53:31.966Z,64.76
2022-08-05T06:54:31.678Z,64.27
2022-08-05T06:55:38.610Z,64.76
2022-08-05T06:56:34.200Z,65.14
2022-08-05T06:58:20.456Z,65.43
2022-08-05T06:58:49.522Z,65.63
2022-08-05T06:59:58.653Z,64.95
2022-08-05T07:00:49.876Z,64.76
2022-08-05T07:01:55.182Z,64.59
2022-08-05T07:02:55.910Z,64.69
2022-08-05T07:03:49.948Z,64.34
2022-08-05T07:04:50.116Z,63.76
2022-08-05T07:05:49.267Z,63.46
2022-08-05T07:06:52.614Z,63.11
2022-08-05T07:07:49.747Z,63.11
2022-08-05T07:08:54.905Z,60.82
2022-08-05T07:09:58.244Z,59.2
2022-08-05T07:10:54.812Z,59.39
2022-08-05T07:11:54.197Z,59.39
2022-08-05T07:12:51.396Z,58.74
2022-08-05T07:14:02.072Z,58.55
2022-08-05T07:14:50.100Z,57.58
2022-08-05T07:16:06.927Z,57.87
2022-08-05T07:18:32.729Z,57.61
2022-08-05T07:20:31.923Z,57.8
2022-08-05T07:20:48.319Z,57.51
2022-08-05T07:22:03.306Z,57.58
2022-08-05T07:22:50.306Z,58.06
2022-08-05T07:23:54.563Z,58.72
2022-08-05T07:24:56.084Z,59.17
2022-08-05T07:25:59.611Z,60.24
2022-08-05T07:26:59.358Z,61.18
2022-08-05T07:28:08.324Z,61.82
2022-08-05T07:29:02.060Z,62.3
2022-08-05T07:30:30.965Z,62.4
2022-08-05T07:30:59.503Z,62.88
2022-08-05T07:31:59.244Z,63.76
2022-08-05T07:32:59.680Z,63.37
2022-08-05T07:34:02.061Z,63.18
2022-08-05T07:35:00.737Z,62.88
2022-08-05T07:36:29.614Z,64.17
2022-08-05T07:37:39.489Z,63.11
2022-08-05T07:38:43.009Z,63.01
2022-08-05T07:40:27.191Z,63.31
2022-08-05T07:41:16.923Z,62.95
2022-08-05T07:42:39.281Z,61.43
2022-08-05T07:43:39.526Z,59.39
2022-08-05T07:44:40.935Z,57.93
2022-08-05T07:46:00.125Z,54.1
2022-08-05T07:46:39.694Z,52.82
2022-08-05T07:47:44.815Z,51.97
2022-08-05T07:49:07.737Z,48.12
2022-08-05T07:49:56.557Z,47
2022-08-05T07:50:39.205Z,45.92
2022-08-05T07:51:53.216Z,45.85
2022-08-05T07:52:40.327Z,45.26
2022-08-05T07:53:52.706Z,45.17
2022-08-05T07:54:47.746Z,45.71
2022-08-05T07:56:39.407Z,47.36
2022-08-05T07:58:09.575Z,47.34
2022-08-05T07:59:12.187Z,47.36
2022-08-05T08:00:13.767Z,47.66
2022-08-05T08:01:14.892Z,47.58
2022-08-05T08:02:19.207Z,46.83
2022-08-05T08:03:18.616Z,45.65
2022-08-05T08:04:22.345Z,45.64
2022-08-05T08:05:19.674Z,46.47
2022-08-05T08:06:18.293Z,47.15
2022-08-05T08:07:22.346Z,47.52
2022-08-05T08:08:21.889Z,47.71
2022-08-05T08:09:22.149Z,48.58
2022-08-05T08:10:22.978Z,48.75
2022-08-05T08:11:18.433Z,49.15
2022-08-05T08:12:48.781Z,50.48
2022-08-05T08:13:28.919Z,50.19
2022-08-05T08:14:21.254Z,50.75
2022-08-05T08:15:18.453Z,51.14
2022-08-05T08:17:01.396Z,51.89
2022-08-05T08:18:07.011Z,52.19
2022-08-05T08:19:00.371Z,52.74
2022-08-05T08:21:09.528Z,54.85
2022-08-05T08:21:50.137Z,55.04
2022-08-05T08:22:46.412Z,54.07
2022-08-05T08:24:08.530Z,53.88
2022-08-05T08:24:55.059Z,54.56
2022-08-05T08:26:06.731Z,54.05
2022-08-05T08:27:09.315Z,53.85
2022-08-05T08:28:03.637Z,54.72
2022-08-05T08:30:03.417Z,55.79
2022-08-05T08:30:52.405Z,56.05
2022-08-05T08:31:52.169Z,56.05
2022-08-05T08:32:53.297Z,56.76
2022-08-05T08:33:53.881Z,55.79
2022-08-05T08:34:52.166Z,55.87
2022-08-05T08:36:37.370Z,56.05
2022-08-05T08:37:11.203Z,56.74
2022-08-05T08:38:11.593Z,56.25
2022-08-05T08:39:18.760Z,56.45
2022-08-05T08:40:09.877Z,57.9
2022-08-05T08:41:09.488Z,58.58
2022-08-05T08:42:50.861Z,57.61
2022-08-05T08:45:33.000Z,56.45
2022-08-05T08:46:33.375Z,56.28
2022-08-05T08:48:12.997Z,55.99
2022-08-05T08:52:05.747Z,55.99
2022-08-05T08:52:26.869Z,55.6
2022-08-05T08:53:23.469Z,56.18
2022-08-05T08:54:29.595Z,55.69
2022-08-05T08:56:03.240Z,55.79
2022-08-05T08:56:27.056Z,55.21
2022-08-05T08:57:24.815Z,55.89
2022-08-05T08:58:44.068Z,55.6
2022-08-05T08:59:23.607Z,55.89
2022-08-05T09:00:23.927Z,56.18
2022-08-05T09:01:24.062Z,56.47
2022-08-05T09:02:29.105Z,53.59
2022-08-05T09:03:23.485Z,54.27
2022-08-05T09:04:32.553Z,54.34
2022-08-05T09:06:17.087Z,54.82
2022-08-05T09:07:39.397Z,55.14
2022-08-05T09:08:12.021Z,55.24
2022-08-05T09:09:11.919Z,55.33
2022-08-05T09:10:11.507Z,55.92
2022-08-05T09:11:15.903Z,54.36
2022-08-05T09:12:29.636Z,53.88
2022-08-05T09:13:13.009Z,53.59
2022-08-05T09:15:05.635Z,54.27
2022-08-05T09:15:18.953Z,54
2022-08-05T09:16:19.635Z,55.85
2022-08-05T09:17:49.545Z,54.2
2022-08-05T09:18:19.523Z,53.83
2022-08-05T09:19:19.228Z,53.74
2022-08-05T09:20:39.590Z,53.06
2022-08-05T09:22:31.695Z,51.99
2022-08-05T09:23:18.377Z,51.87
2022-08-05T09:24:10.251Z,52.74
2022-08-05T09:25:59.657Z,53.35
2022-08-05T09:26:24.554Z,53.03
2022-08-05T09:28:07.775Z,51.99
2022-08-05T09:28:31.734Z,52.37
2022-08-05T09:29:33.307Z,52.96
2022-08-05T09:30:26.295Z,51.99
2022-08-05T09:32:46.266Z,52.19
2022-08-05T09:33:01.108Z,52.19
2022-08-05T09:34:01.817Z,51.89
2022-08-05T09:35:00.850Z,52.09
2022-08-05T09:36:03.674Z,49.95
2022-08-05T09:37:01.944Z,50.14
2022-08-05T09:38:31.867Z,50.43
2022-08-05T09:39:27.929Z,50.34
2022-08-05T09:40:25.204Z,49.97
2022-08-05T09:41:22.063Z,49.97
2022-08-05T09:42:30.501Z,49.39
2022-08-05T09:43:22.528Z,48.71
2022-08-05T09:44:24.889Z,49.1
2022-08-05T09:46:09.217Z,49.1
2022-08-05T09:46:33.435Z,49.29
2022-08-05T09:47:55.754Z,49.78
2022-08-05T09:48:33.810Z,48.9
2022-08-05T09:50:00.847Z,49.49
2022-08-05T09:50:44.326Z,48.83
2022-08-05T09:51:39.962Z,49.22
2022-08-05T09:52:33.844Z,48.25
2022-08-05T09:53:59.071Z,47.49
2022-08-05T09:54:33.714Z,47.32
2022-08-05T09:56:04.612Z,47.22
2022-08-05T09:56:33.462Z,46.76
2022-08-05T09:57:39.430Z,45.29
2022-08-05T09:58:33.470Z,45.68
2022-08-05T09:59:39.320Z,45.88
2022-08-05T10:00:34.058Z,46.66
2022-08-05T10:01:34.736Z,47.25
2022-08-05T10:02:34.087Z,49.39
2022-08-05T10:04:01.193Z,49.19
2022-08-05T10:04:38.217Z,48.83
2022-08-05T10:05:35.612Z,48.32
2022-08-05T10:06:34.354Z,47.53
2022-08-05T10:08:38.223Z,47.27
2022-08-05T10:09:05.444Z,45.81
2022-08-05T10:10:32.517Z,44.24
2022-08-05T10:11:18.328Z,44.15
2022-08-05T10:12:33.458Z,44.73
2022-08-05T10:13:18.075Z,44.93
2022-08-05T10:14:18.339Z,46.2
2022-08-05T10:15:19.956Z,46.2
2022-08-05T10:16:19.366Z,45.9
2022-08-05T10:17:43.418Z,45.03
2022-08-05T10:18:18.990Z,44.71
2022-08-05T10:19:18.366Z,45
2022-08-05T10:20:22.486Z,46.25
2022-08-05T10:21:25.131Z,45.95
2022-08-05T10:22:34.931Z,46.13
2022-08-05T10:24:00.219Z,46.32
2022-08-05T10:24:27.437Z,44.96
2022-08-05T10:25:21.872Z,44.86
2022-08-05T10:26:33.842Z,46.51
2022-08-05T10:28:09.834Z,45.25
2022-08-05T10:28:44.985Z,45.54
2022-08-05T10:32:50.140Z,45.84
2022-08-05T10:33:18.997Z,49.1
2022-08-05T10:34:19.138Z,50.07
2022-08-05T10:35:19.048Z,49.41
2022-08-05T10:36:26.306Z,47.66
2022-08-05T10:37:19.724Z,45.73
2022-08-05T10:38:22.982Z,45.12
2022-08-05T10:39:58.641Z,44.93
2022-08-05T10:40:33.991Z,44.52
2022-08-05T10:41:49.297Z,44.62
2022-08-05T10:42:36.367Z,44.62
2022-08-05T10:43:38.709Z,44.49
2022-08-05T10:44:35.102Z,44.79
2022-08-05T10:45:44.498Z,44.89
2022-08-05T10:46:34.245Z,45.47
2022-08-05T10:47:34.163Z,45.37
2022-08-05T10:48:53.122Z,44.59
2022-08-05T10:49:48.919Z,43.84
2022-08-05T10:50:53.499Z,43.15
2022-08-05T10:52:02.321Z,43.27
2022-08-05T10:52:52.231Z,43.08
2022-08-05T10:53:50.539Z,42.88
2022-08-05T10:54:59.152Z,42.88
2022-08-05T10:56:14.806Z,42.49
2022-08-05T10:56:54.832Z,43.08
2022-08-05T10:57:53.619Z,43.37
2022-08-05T10:58:52.958Z,42.79
2022-08-05T11:00:12.105Z,42.3
2022-08-05T11:01:00.556Z,42.12
2022-08-05T11:02:07.007Z,40.95
2022-08-05T11:02:53.724Z,40.95
2022-08-05T11:03:52.839Z,40.95
2022-08-05T11:04:53.857Z,41.32
2022-08-05T11:05:56.178Z,43.76
2022-08-05T11:06:53.752Z,46.1
2022-08-05T11:08:21.883Z,45.59
2022-08-05T11:08:53.582Z,43.64
2022-08-05T11:10:09.829Z,42.57
2022-08-05T11:11:07.787Z,43.43
2022-08-05T11:11:56.030Z,44.69
2022-08-05T11:12:57.806Z,44.81
2022-08-05T11:14:00.482Z,44.59
2022-08-05T11:15:19.529Z,44.23
2022-08-05T11:16:06.332Z,43.74
2022-08-05T11:18:03.847Z,42.88
2022-08-05T11:18:23.966Z,42.34
2022-08-05T11:20:19.567Z,41.05
2022-08-05T11:20:36.637Z,41.17
2022-08-05T11:21:51.516Z,41.56
2022-08-05T11:22:36.388Z,42.54
2022-08-05T11:24:14.725Z,41.75
2022-08-05T11:26:08.976Z,40.7
2022-08-05T11:26:35.902Z,40.7
2022-08-05T11:28:00.581Z,40.92
2022-08-05T11:28:38.422Z,41.89
2022-08-05T11:29:35.599Z,40.84
2022-08-05T11:30:36.260Z,40.74
2022-08-05T11:32:02.429Z,38.51
2022-08-05T11:32:38.188Z,38.61
2022-08-05T11:33:48.763Z,38.61
2022-08-05T11:34:35.947Z,38.02
2022-08-05T11:35:35.371Z,39.18
2022-08-05T11:36:42.038Z,40.06
2022-08-05T11:38:45.584Z,39.76
2022-08-05T11:39:04.632Z,39.76
2022-08-05T11:40:06.967Z,39.39
2022-08-05T11:41:58.420Z,38.71
2022-08-05T11:42:21.743Z,38.02
2022-08-05T11:44:08.418Z,37.93
2022-08-05T11:44:58.100Z,40.88
2022-08-05T11:46:35.833Z,37.35
2022-08-05T11:47:56.975Z,37.18
2022-08-05T11:48:53.434Z,37.77
2022-08-05T11:49:53.707Z,38.34
2022-08-05T11:50:52.123Z,38.26
2022-08-05T11:51:52.445Z,38.16
2022-08-05T11:52:58.061Z,37.37
2022-08-05T11:53:52.144Z,37.57
2022-08-05T11:54:57.315Z,37.39
2022-08-05T11:55:55.530Z,36.71
2022-08-05T11:56:53.050Z,36.59
2022-08-05T11:58:13.569Z,36.49
2022-08-05T11:58:55.668Z,36.4
2022-08-05T11:59:53.076Z,37.45
2022-08-05T12:00:56.308Z,39.02
2022-08-05T12:01:54.661Z,40
2022-08-05T12:02:52.823Z,40.95
2022-08-05T12:03:58.553Z,40.86
2022-08-05T12:05:01.423Z,39.88
2022-08-05T12:05:53.005Z,39.39
2022-08-05T12:06:53.891Z,39
2022-08-05T12:08:11.905Z,39.37
2022-08-05T12:08:53.685Z,40.06
2022-08-05T12:09:55.790Z,39.86
2022-08-05T12:10:54.971Z,38.77
2022-08-05T12:11:53.150Z,38.48
2022-08-05T12:13:02.466Z,38.77
2022-08-05T12:13:55.048Z,39.16
2022-08-05T12:14:58.589Z,38.84
2022-08-05T12:15:58.171Z,39.72
2022-08-05T12:16:54.834Z,39.55
2022-08-05T12:18:13.620Z,38.48
2022-08-05T12:19:04.279Z,38.57
2022-08-05T12:20:39.472Z,38.67
2022-08-05T12:21:41.601Z,39.65
2022-08-05T12:22:42.155Z,40.72
2022-08-05T12:23:45.323Z,41.21
2022-08-05T12:24:40.546Z,40.63
2022-08-05T12:25:40.537Z,39.84
2022-08-05T12:26:39.276Z,40.04
2022-08-05T12:27:55.067Z,40.04
2022-08-05T12:28:39.820Z,39.16
2022-08-05T12:29:41.126Z,38.18
2022-08-05T12:30:48.332Z,37.89
2022-08-05T12:31:53.366Z,37.79
2022-08-05T12:32:42.131Z,38.09
2022-08-05T12:33:41.199Z,37.79
2022-08-05T12:34:39.208Z,38.48
2022-08-05T12:35:45.437Z,38.77
2022-08-05T12:36:40.533Z,38.3
2022-08-05T12:37:40.167Z,35.07
2022-08-05T12:38:40.062Z,34.29
2022-08-05T12:39:41.362Z,34.19
2022-08-05T12:40:39.465Z,34.29
2022-08-05T12:41:46.425Z,32.43
2022-08-05T12:42:39.228Z,32.14
2022-08-05T12:43:41.339Z,32.73
2022-08-05T12:44:43.066Z,32.92
2022-08-05T12:45:52.151Z,30.87
2022-08-05T12:46:39.494Z,30.77
2022-08-05T12:47:43.391Z,31.93
2022-08-05T12:48:42.263Z,30.76
2022-08-05T12:50:10.391Z,30.96
2022-08-05T12:50:42.907Z,31.25
2022-08-05T12:52:24.084Z,30.18
2022-08-05T12:52:50.757Z,30.55
2022-08-05T12:53:58.413Z,32.11
2022-08-05T12:54:51.893Z,32.21
2022-08-05T12:55:52.305Z,31.9
2022-08-05T12:56:53.429Z,32.48
2022-08-05T12:58:59.744Z,31.99
2022-08-05T13:02:10.256Z,32.67
2022-08-05T13:03:00.899Z,32.45
2022-08-05T13:04:01.328Z,32.37
2022-08-05T13:05:01.267Z,32.65
2022-08-05T13:06:00.966Z,32.76
2022-08-05T13:07:02.377Z,32.76
2022-08-05T13:08:04.163Z,32.86
2022-08-05T13:09:02.726Z,33.36
2022-08-05T13:10:03.229Z,32.7
2022-08-05T13:11:04.209Z,31.62
2022-08-05T13:12:05.887Z,31.93
2022-08-05T13:13:04.938Z,31.93
2022-08-05T13:14:25.162Z,33.4
2022-08-05T13:15:24.230Z,33.11
2022-08-05T13:16:19.138Z,32.81
2022-08-05T13:17:25.125Z,32.71
2022-08-05T13:18:24.064Z,32.7
2022-08-05T13:19:18.299Z,32.81
2022-08-05T13:20:26.118Z,34.26
2022-08-05T13:21:20.254Z,33.48
2022-08-05T13:22:31.889Z,33.97
2022-08-05T13:23:22.377Z,34.84
2022-08-05T13:24:57.295Z,35.24
2022-08-05T13:26:03.564Z,34.84
2022-08-05T13:26:54.285Z,33.67
2022-08-05T13:27:54.125Z,32.79
2022-08-05T13:28:55.783Z,33.67
2022-08-05T13:30:36.990Z,33.48
2022-08-05T13:30:55.679Z,33.85
2022-08-05T13:32:07.359Z,35.41
2022-08-05T13:32:54.705Z,35.02
2022-08-05T13:34:26.542Z,33.95
2022-08-05T13:34:54.153Z,33.97
2022-08-05T13:35:54.468Z,32.5
2022-08-05T13:36:54.157Z,33.87
2022-08-05T13:37:57.940Z,33.58
2022-08-05T13:38:54.275Z,33.48
2022-08-05T13:40:35.796Z,33.97
2022-08-05T13:41:02.702Z,33.67
2022-08-05T13:42:01.588Z,32.6
2022-08-05T13:43:01.113Z,32.6
2022-08-05T13:44:01.127Z,32.7
2022-08-05T13:45:01.424Z,31.72
2022-08-05T13:46:01.327Z,32.01
2022-08-05T13:47:11.096Z,32.6
2022-08-05T13:49:12.553Z,33.67
2022-08-05T13:50:16.752Z,34.53
2022-08-05T13:51:08.332Z,33.75
2022-08-05T13:52:11.418Z,32.86
2022-08-05T13:53:18.148Z,34.12
2022-08-05T13:54:15.095Z,34.52
2022-08-05T13:55:11.981Z,36.39
2022-08-05T13:56:21.484Z,35.51
2022-08-05T13:57:21.473Z,34.73
2022-08-05T13:58:33.140Z,33.87
2022-08-05T13:59:24.693Z,35.33
2022-08-05T14:00:29.133Z,34.16
2022-08-05T14:01:23.736Z,33.5
2022-08-05T14:02:26.423Z,32.81
2022-08-05T14:03:20.740Z,31.74
2022-08-05T14:04:20.806Z,31.45
2022-08-05T14:05:29.608Z,31.05
2022-08-05T14:06:33.459Z,31.92
2022-08-05T14:08:08.901Z,32.6
2022-08-05T14:08:42.481Z,33.18
2022-08-05T14:09:48.440Z,32.6
2022-08-05T14:10:42.553Z,32.79
2022-08-05T14:12:32.387Z,33.67
2022-08-05T14:12:57.030Z,33.01
2022-08-05T14:13:59.089Z,32.52
2022-08-05T14:14:53.603Z,31.93
2022-08-05T14:16:12.006Z,32.52
2022-08-05T14:16:57.500Z,31.93
2022-08-05T14:17:55.003Z,32.82
2022-08-05T14:18:52.338Z,33.12
2022-08-05T14:20:02.411Z,33.7
2022-08-05T14:20:57.225Z,33.7
2022-08-05T14:22:17.524Z,32.82
2022-08-05T14:23:36.376Z,31.87
2022-08-05T14:24:22.025Z,31.87
2022-08-05T14:25:27.921Z,33.92
2022-08-05T14:26:56.531Z,31.96
2022-08-05T14:27:31.852Z,31.77
2022-08-05T14:28:32.633Z,31.38
2022-08-05T14:29:33.781Z,32.55
2022-08-05T14:30:33.267Z,30.88
2022-08-05T14:32:26.748Z,30.87
2022-08-05T14:32:42.823Z,30.48
2022-08-05T14:34:02.939Z,32.73
2022-08-05T14:34:42.509Z,33.3
2022-08-05T14:35:54.150Z,31.75
2022-08-05T14:36:42.437Z,29.99
2022-08-05T14:37:53.622Z,29.7
2022-08-05T14:38:43.521Z,30.37
2022-08-05T14:39:56.863Z,30.96
2022-08-05T14:40:46.379Z,30.47
2022-08-05T14:42:19.777Z,30.37
2022-08-05T14:42:42.725Z,30.47
2022-08-05T14:44:09.894Z,31.25
2022-08-05T14:44:43.957Z,31.45
2022-08-05T14:45:43.623Z,31.54
2022-08-05T14:46:42.527Z,31.35
2022-08-05T14:48:08.905Z,31.54
2022-08-05T14:48:44.489Z,31.74
2022-08-05T14:50:08.990Z,31.74
2022-08-05T14:50:45.043Z,31.54
2022-08-05T14:51:45.141Z,31.52
2022-08-05T14:52:57.921Z,32.21
2022-08-05T14:54:25.817Z,32.48
2022-08-05T14:54:58.969Z,33.17
2022-08-05T14:55:58.463Z,32.87
2022-08-05T14:56:58.467Z,32.97
2022-08-05T14:57:59.147Z,33.26
2022-08-05T14:58:58.732Z,33.56
2022-08-05T14:59:58.663Z,33.65
2022-08-05T15:01:01.713Z,34.05
2022-08-05T15:01:59.114Z,34.81
2022-08-05T15:02:59.074Z,33.83
2022-08-05T15:03:58.747Z,34.03
2022-08-05T15:04:58.750Z,34.31
2022-08-05T15:06:15.982Z,34.32
2022-08-05T15:06:58.774Z,35.08
2022-08-05T15:08:16.920Z,35.3
2022-08-05T15:09:12.676Z,34.81
2022-08-05T15:10:12.412Z,34.42
2022-08-05T15:11:10.604Z,33.85
2022-08-05T15:12:11.651Z,34.34
2022-08-05T15:13:12.818Z,34.34
2022-08-05T15:14:10.367Z,35.12
2022-08-05T15:15:17.846Z,35.22
2022-08-05T15:16:15.233Z,35.88
2022-08-05T15:17:52.052Z,35
2022-08-05T15:18:10.753Z,34.91
2022-08-05T15:19:26.197Z,35.88
2022-08-05T15:20:24.607Z,36.25
2022-08-05T15:21:11.030Z,36.74
2022-08-05T15:22:11.425Z,37.04
2022-08-05T15:23:11.042Z,37.33
2022-08-05T15:24:11.804Z,37.91
2022-08-05T15:25:16.690Z,37.71
2022-08-05T15:26:10.883Z,38.87
2022-08-05T15:27:11.633Z,38.49
2022-08-05T15:28:16.132Z,38.38
2022-08-05T15:29:11.402Z,38.38
2022-08-05T15:30:14.130Z,38.09
2022-08-05T15:31:11.383Z,38.56
2022-08-05T15:32:11.073Z,38.36
2022-08-05T15:33:10.819Z,38.09
2022-08-05T15:34:39.143Z,38.09
2022-08-05T15:35:47.729Z,38.57
2022-08-05T15:36:38.534Z,38.57
2022-08-05T15:38:41.096Z,38.38
2022-08-05T15:41:25.943Z,39.28
2022-08-05T15:43:23.124Z,37.65
2022-08-05T15:44:18.525Z,37.46
2022-08-05T15:45:16.736Z,37.46
2022-08-05T15:46:16.825Z,37.48
2022-08-05T15:47:19.179Z,36.31
2022-08-05T15:48:17.710Z,36.41
2022-08-05T15:49:42.101Z,36.31
2022-08-05T15:50:18.268Z,36.04
2022-08-05T15:51:18.861Z,35.25
2022-08-05T15:53:09.109Z,35.35
2022-08-05T15:54:10.517Z,32.23
2022-08-05T15:55:06.101Z,31.85
2022-08-05T15:56:13.105Z,32.23
2022-08-05T15:57:09.578Z,31.64
2022-08-05T15:58:06.382Z,32.32
2022-08-05T15:59:08.253Z,31.35
2022-08-05T16:00:06.128Z,30.66
2022-08-05T16:01:19.199Z,30.74
2022-08-05T16:02:14.652Z,31.72
2022-08-05T16:03:07.889Z,31.82
2022-08-05T16:04:06.517Z,31.92
2022-08-05T16:05:09.652Z,31.22
2022-08-05T16:06:06.837Z,31.02
2022-08-05T16:07:10.682Z,30.73
2022-08-05T16:08:07.436Z,30.44
2022-08-05T16:09:06.427Z,30.44
2022-08-05T16:10:06.621Z,31.02
2022-08-05T16:11:06.804Z,31.7
2022-08-05T16:12:06.710Z,31.6
2022-08-05T16:13:07.145Z,31.9
2022-08-05T16:14:06.197Z,31.6
2022-08-05T16:15:07.310Z,31.31
2022-08-05T16:16:06.530Z,31.02
2022-08-05T16:17:06.539Z,31.69
2022-08-05T16:18:11.717Z,32.57
2022-08-05T16:19:06.476Z,32.09
2022-08-05T16:20:14.978Z,31.59
2022-08-05T16:21:15.859Z,31.69
2022-08-05T16:22:15.822Z,32.57
2022-08-05T16:23:14.898Z,31.69
2022-08-05T16:24:40.800Z,31.79
2022-08-05T16:25:16.053Z,32.47
2022-08-05T16:26:15.118Z,32.28
2022-08-05T16:27:18.385Z,32.18
2022-08-05T16:28:17.798Z,30.52
2022-08-05T16:29:17.071Z,30.42
2022-08-05T16:30:28.960Z,30.62
2022-08-05T16:31:14.934Z,31.49
2022-08-05T16:32:14.939Z,32.37
2022-08-05T16:33:17.620Z,32.08
2022-08-05T16:34:16.793Z,31.69
2022-08-05T16:35:18.367Z,31.88
2022-08-05T16:36:14.949Z,32.75
2022-08-05T16:38:16.480Z,31.88
2022-08-05T16:38:36.769Z,32.08
2022-08-05T16:40:13.632Z,32.47
2022-08-05T16:40:38.929Z,32.45
2022-08-05T16:42:21.613Z,34.01
2022-08-05T16:42:41.455Z,34.52
2022-08-05T16:43:40.358Z,34.22
2022-08-05T16:44:40.361Z,33.82
2022-08-05T16:46:12.985Z,33.15
2022-08-05T16:46:55.554Z,33.14
2022-08-05T16:47:58.563Z,32.94
2022-08-05T16:48:40.804Z,33.23
2022-08-05T16:49:40.651Z,33.82
2022-08-05T16:50:40.395Z,34.01
2022-08-05T16:51:54.712Z,34.01
2022-08-05T16:52:48.351Z,33.9
2022-08-05T16:54:16.228Z,34.97
2022-08-05T16:54:41.461Z,35.16
2022-08-05T16:55:49.292Z,35.53
2022-08-05T16:56:44.158Z,36.51
2022-08-05T16:57:59.962Z,37.68
2022-08-05T16:58:40.636Z,38.15
2022-08-05T17:00:08.627Z,39.12
2022-08-05T17:00:42.186Z,39.51
2022-08-05T17:01:57.952Z,39.98
2022-08-05T17:02:40.484Z,40.56
2022-08-05T17:03:41.092Z,40.66
2022-08-05T17:04:42.551Z,41.44
2022-08-05T17:05:40.747Z,42.1
2022-08-05T17:06:43.957Z,42.58
2022-08-05T17:07:54.514Z,42.58
2022-08-05T17:08:55.957Z,42.97
2022-08-05T17:09:59.501Z,43.15
2022-08-05T17:10:40.507Z,44.31
2022-08-05T17:11:54.717Z,44.43
2022-08-05T17:12:54.666Z,43.73
2022-08-05T17:13:44.511Z,44.51
2022-08-05T17:14:40.912Z,43.73
2022-08-05T17:15:55.520Z,44.31
2022-08-05T17:16:40.814Z,43.82
2022-08-05T17:17:44.864Z,44.51
2022-08-05T17:18:41.174Z,44.68
2022-08-05T17:19:40.793Z,45.45
2022-08-05T17:20:44.107Z,46.52
2022-08-05T17:21:42.027Z,46.69
2022-08-05T17:22:41.683Z,47.38
2022-08-05T17:24:20.653Z,47.47
2022-08-05T17:25:22.405Z,47.38
2022-08-05T17:26:04.682Z,47.57
2022-08-05T17:27:03.974Z,47.35
2022-08-05T17:28:03.791Z,47.83
2022-08-05T17:29:09.796Z,47.93
2022-08-05T17:30:04.803Z,48.9
2022-08-05T17:31:41.234Z,49.97
2022-08-05T17:32:11.589Z,50.62
2022-08-05T17:33:10.954Z,51.59